Time;durP1;ratioP1;P1;durP2;ratioP2;P2;SDS_P1;SDS_P2;PMS_P1;PMS_P2;Temp;Humidity;BMP_temperature;BMP_pressure;BME280_temperature;BME280_humidity;BME280_pressure;Samples;Min_cycle;Max_cycle;Signal;HPM_P1;HPM_P2
2022/03/07 00:00:05;;;;;;;41.35;21.27;;;;;;;-0.76;77.73;100344.84;4909637;29;20435;-78
2022/03/07 00:03:06;;;;;;;36.67;18.92;;;;;;;-0.84;77.39;100320.63;4910033;29;20044;-78
2022/03/07 00:05:51;;;;;;;25.92;15.10;;;;;;;-0.84;75.99;100329.22;4923581;29;20355;-78
2022/03/07 00:08:35;;;;;;;24.67;14.63;;;;;;;-0.86;75.88;100332.56;4923023;29;20044;-78
2022/03/07 00:11:20;;;;;;;29.02;15.88;;;;;;;-0.82;75.64;100327.53;4923359;29;20060;-78
2022/03/07 00:14:04;;;;;;;31.02;15.57;;;;;;;-0.87;75.12;100318.84;4923099;29;20099;-78
2022/03/07 00:16:49;;;;;;;26.40;14.23;;;;;;;-0.94;75.52;100324.63;4923591;29;20044;-78
2022/03/07 00:19:33;;;;;;;25.67;14.07;;;;;;;-0.97;75.95;100306.53;4922770;29;20432;-79
2022/03/07 00:22:17;;;;;;;27.52;14.63;;;;;;;-0.77;75.81;100351.69;4923045;29;20040;-78
2022/03/07 00:25:02;;;;;;;139.32;52.03;;;;;;;-0.78;75.63;100351.66;4895709;29;20056;-78
2022/03/07 00:27:47;;;;;;;32.90;18.30;;;;;;;-1.01;75.05;100331.28;4909435;29;20075;-78
2022/03/07 00:30:31;;;;;;;26.23;14.35;;;;;;;-0.96;75.94;100329.72;4922955;29;20048;-78
2022/03/07 00:33:17;;;;;;;52.25;24.20;;;;;;;-0.85;75.72;100319.72;4922860;29;20048;-78
2022/03/07 00:36:04;;;;;;;35.78;18.25;;;;;;;-0.73;75.54;100342.38;4922693;29;20336;-78
2022/03/07 00:38:48;;;;;;;32.78;18.15;;;;;;;-0.90;75.46;100297.28;4908698;29;20041;-78
2022/03/07 00:41:33;;;;;;;27.35;15.68;;;;;;;-0.87;75.68;100315.38;4908972;29;20044;-78
2022/03/07 00:44:17;;;;;;;27.20;16.08;;;;;;;-0.99;76.30;100295.31;4922810;29;20052;-78
2022/03/07 00:47:01;;;;;;;27.90;15.90;;;;;;;-0.98;76.89;100291.91;4908182;29;20084;-78
2022/03/07 00:49:46;;;;;;;29.35;15.25;;;;;;;-0.96;77.38;100313.41;4908878;29;20187;-78
2022/03/07 00:52:30;;;;;;;28.67;15.43;;;;;;;-0.73;77.36;100332.94;4922772;29;20044;-78
2022/03/07 00:55:16;;;;;;;28.33;14.88;;;;;;;-0.96;77.67;100296.28;4908535;29;20358;-78
2022/03/07 00:58:01;;;;;;;29.92;14.15;;;;;;;-0.87;77.63;100312.81;4895416;29;20044;-78
2022/03/07 01:00:46;;;;;;;28.67;14.80;;;;;;;-1.04;78.17;100296.88;4895524;29;20056;-78
2022/03/07 01:03:31;;;;;;;28.40;15.35;;;;;;;-1.07;78.60;100289.97;4922762;29;20048;-78
2022/03/07 01:06:15;;;;;;;23.00;14.65;;;;;;;-0.98;78.62;100305.63;4908714;29;20507;-78
2022/03/07 01:09:01;;;;;;;25.65;13.48;;;;;;;-0.96;79.08;100297.97;4922656;29;20123;-78
2022/03/07 01:11:47;;;;;;;27.85;14.95;;;;;;;-1.07;79.62;100282.25;4907771;29;20119;-79
2022/03/07 01:14:32;;;;;;;33.00;14.75;;;;;;;-1.07;80.05;100283.91;4907730;29;20076;-78
2022/03/07 01:17:16;;;;;;;25.15;13.95;;;;;;;-0.90;80.50;100315.28;4921782;29;20063;-78
2022/03/07 01:20:02;;;;;;;22.42;13.45;;;;;;;-0.87;80.75;100323.97;4922018;29;20443;-78
2022/03/07 01:22:47;;;;;;;29.38;16.00;;;;;;;-0.86;80.37;100291.41;4908100;29;20040;-78
2022/03/07 01:25:32;;;;;;;29.83;16.42;;;;;;;-1.04;80.74;100274.63;4922072;29;20048;-78
2022/03/07 01:28:16;;;;;;;30.85;15.70;;;;;;;-1.01;81.40;100276.38;4892083;29;20052;-78
2022/03/07 01:31:00;;;;;;;28.85;15.60;;;;;;;-1.07;81.45;100271.97;4907814;29;20056;-78
2022/03/07 01:33:45;;;;;;;29.17;14.85;;;;;;;-1.05;81.43;100265.16;4922029;29;20052;-78
2022/03/07 01:36:31;;;;;;;29.13;15.40;;;;;;;-1.05;81.54;100285.72;4921598;29;20473;-78
2022/03/07 01:39:16;;;;;;;29.52;13.77;;;;;;;-1.08;81.31;100267.63;4907309;29;20052;-78
2022/03/07 01:42:00;;;;;;;27.80;14.00;;;;;;;-0.95;80.66;100280.00;4921840;29;20060;-78
2022/03/07 01:44:45;;;;;;;27.50;14.80;;;;;;;-1.02;81.20;100254.09;4921763;29;20052;-78
2022/03/07 01:47:32;;;;;;;24.10;13.68;;;;;;;-1.06;80.80;100247.97;4921520;29;20068;-78
2022/03/07 01:50:20;;;;;;;27.48;13.55;;;;;;;-1.08;80.68;100252.19;4892056;29;20058;-78
2022/03/07 01:53:06;;;;;;;27.73;12.93;;;;;;;-0.96;80.85;100257.69;4894219;29;20100;-78
2022/03/07 01:55:50;;;;;;;25.75;13.00;;;;;;;-0.96;81.05;100262.84;4921549;29;20044;-78
2022/03/07 01:58:36;;;;;;;25.90;14.13;;;;;;;-0.91;80.88;100256.94;4907482;29;20048;-78
2022/03/07 02:01:20;;;;;;;26.52;12.82;;;;;;;-0.92;81.08;100268.06;4907451;29;20044;-78
2022/03/07 02:04:07;;;;;;;27.15;13.52;;;;;;;-0.93;81.26;100290.34;4921241;29;20064;-78
2022/03/07 02:06:52;;;;;;;25.50;12.73;;;;;;;-0.93;81.20;100256.06;4907719;29;20546;-78
2022/03/07 02:09:38;;;;;;;26.45;13.38;;;;;;;-0.86;81.61;100273.41;4907534;29;20040;-78
2022/03/07 02:12:23;;;;;;;27.15;13.88;;;;;;;-1.00;81.47;100248.16;4906760;29;20063;-77
2022/03/07 02:15:08;;;;;;;29.08;14.10;;;;;;;-1.07;82.02;100247.91;4906981;29;20359;-77
2022/03/07 02:17:53;;;;;;;27.90;14.70;;;;;;;-1.10;81.94;100235.88;4907480;29;20059;-77
2022/03/07 02:20:39;;;;;;;30.17;13.60;;;;;;;-1.02;81.94;100247.25;4894523;29;20048;-78
2022/03/07 02:23:24;;;;;;;28.67;13.82;;;;;;;-1.10;82.16;100238.44;4907417;29;20119;-78
2022/03/07 02:26:12;;;;;;;26.50;14.65;;;;;;;-1.06;82.49;100234.25;4906780;29;20051;-78
2022/03/07 02:28:56;;;;;;;26.92;15.13;;;;;;;-1.18;83.19;100235.63;4921615;29;20044;-78
2022/03/07 02:31:45;;;;;;;25.58;14.77;;;;;;;-1.16;83.25;100225.41;4907509;29;20067;-78
2022/03/07 02:34:34;;;;;;;29.10;14.15;;;;;;;-1.09;83.90;100247.91;4906815;29;20439;-78
2022/03/07 02:37:19;;;;;;;25.08;14.73;;;;;;;-1.00;84.01;100268.75;4906809;29;20051;-78
2022/03/07 02:40:09;;;;;;;26.67;14.65;;;;;;;-1.29;83.92;100231.91;4907134;29;20112;-79
2022/03/07 02:42:55;;;;;;;28.45;14.43;;;;;;;-1.17;83.66;100228.78;4907163;29;20048;-78
2022/03/07 02:45:40;;;;;;;27.83;14.52;;;;;;;-1.04;83.55;100266.91;4907072;29;20355;-78
2022/03/07 02:48:25;;;;;;;28.67;15.15;;;;;;;-1.05;83.93;100260.00;4907362;29;20048;-78
2022/03/07 02:51:09;;;;;;;26.70;14.77;;;;;;;-1.11;83.42;100254.69;4906619;29;20056;-78
2022/03/07 02:53:54;;;;;;;26.70;15.15;;;;;;;-0.99;82.64;100254.16;4907078;29;20044;-78
2022/03/07 02:56:38;;;;;;;25.70;14.18;;;;;;;-1.07;82.81;100235.97;4907172;29;20076;-78
2022/03/07 02:59:25;;;;;;;25.50;13.75;;;;;;;-0.94;82.70;100247.47;4920970;29;20048;-78
2022/03/07 03:02:10;;;;;;;28.75;13.98;;;;;;;-1.13;83.04;100222.06;4921089;29;20427;-78
2022/03/07 03:04:55;;;;;;;27.13;12.82;;;;;;;-1.13;83.12;100217.78;4920874;29;20336;-78
2022/03/07 03:07:39;;;;;;;26.50;12.75;;;;;;;-0.89;82.90;100263.88;4921263;29;20435;-78
2022/03/07 03:10:23;;;;;;;22.50;12.40;;;;;;;-0.94;82.53;100252.63;4921030;29;20048;-79
2022/03/07 03:13:08;;;;;;;28.42;15.10;;;;;;;-1.09;82.69;100229.03;4920414;29;20056;-78
2022/03/07 03:15:55;;;;;;;26.42;13.60;;;;;;;-1.14;83.17;100234.03;4920580;29;20077;-78
2022/03/07 03:18:39;;;;;;;29.13;14.05;;;;;;;-0.98;83.28;100232.75;4920748;29;20075;-78
2022/03/07 03:21:24;;;;;;;32.05;14.65;;;;;;;-1.21;83.48;100212.41;4920804;29;20111;-78
2022/03/07 03:24:09;;;;;;;29.42;14.60;;;;;;;-0.96;83.76;100261.97;4906783;29;20362;-78
2022/03/07 03:26:54;;;;;;;30.25;16.42;;;;;;;-1.22;84.71;100230.38;4920711;29;20040;-78
2022/03/07 03:29:39;;;;;;;32.85;17.17;;;;;;;-1.20;84.26;100221.88;4920789;29;20416;-78
2022/03/07 03:32:25;;;;;;;30.98;16.20;;;;;;;-1.17;84.37;100197.94;4920452;29;20040;-78
2022/03/07 03:35:10;;;;;;;34.30;15.80;;;;;;;-1.08;84.94;100226.50;4919946;29;20427;-78
2022/03/07 03:37:56;;;;;;;37.38;16.90;;;;;;;-1.08;84.71;100218.78;4923126;29;20050;-78
2022/03/07 03:40:41;;;;;;;31.98;15.73;;;;;;;-1.00;85.17;100222.44;4924292;29;20067;-78
2022/03/07 03:43:26;;;;;;;29.85;15.27;;;;;;;-1.10;85.70;100211.88;4924096;29;20439;-78
2022/03/07 03:46:11;;;;;;;33.35;16.45;;;;;;;-1.10;85.83;100210.16;4923900;29;20628;-78
2022/03/07 03:48:56;;;;;;;34.63;16.45;;;;;;;-1.23;86.74;100197.78;4924669;29;20083;-78
2022/03/07 03:51:42;;;;;;;36.45;18.30;;;;;;;-1.15;87.09;100211.72;4910438;29;20459;-78
2022/03/07 03:54:27;;;;;;;34.17;17.23;;;;;;;-1.14;87.92;100218.59;4910632;29;20049;-78
2022/03/07 03:57:11;;;;;;;33.20;16.70;;;;;;;-1.11;87.46;100192.97;4910491;29;20056;-78
2022/03/07 03:59:56;;;;;;;29.15;16.95;;;;;;;-1.09;88.00;100229.03;4924594;29;20403;-78
2022/03/07 04:02:44;;;;;;;33.33;16.25;;;;;;;-1.04;88.68;100225.78;4910170;29;20044;-78
2022/03/07 04:05:29;;;;;;;33.72;16.63;;;;;;;-0.95;88.64;100231.16;4923422;29;20051;-78
2022/03/07 04:08:13;;;;;;;28.80;15.98;;;;;;;-0.88;88.31;100232.19;4923393;29;20051;-78
2022/03/07 04:10:59;;;;;;;46.03;27.50;;;;;;;-1.00;89.01;100206.16;4923538;29;20107;-78
2022/03/07 04:13:43;;;;;;;316.23;118.10;;;;;;;-0.98;89.46;100220.78;4923318;29;20120;-78
2022/03/07 04:16:27;;;;;;;92.20;44.85;;;;;;;-0.95;90.19;100222.56;4923520;29;20435;-78
2022/03/07 04:19:13;;;;;;;36.88;18.42;;;;;;;-0.82;89.47;100241.78;4923372;29;20055;-78
2022/03/07 04:21:57;;;;;;;28.50;14.50;;;;;;;-0.76;89.13;100247.09;4893779;29;20063;-78
2022/03/07 04:24:41;;;;;;;27.05;14.18;;;;;;;-0.91;89.83;100231.22;4923184;29;20399;-78
2022/03/07 04:27:26;;;;;;;28.25;14.93;;;;;;;-0.99;89.94;100228.47;4923278;29;20044;-78
2022/03/07 04:30:10;;;;;;;36.78;17.88;;;;;;;-1.02;89.66;100218.09;4923118;29;20383;-78
2022/03/07 04:32:57;;;;;;;33.90;16.95;;;;;;;-1.15;90.14;100209.16;4923466;29;20135;-78
2022/03/07 04:35:41;;;;;;;29.25;15.80;;;;;;;-0.91;90.59;100260.41;4909258;29;20056;-78
2022/03/07 04:38:28;;;;;;;35.00;17.98;;;;;;;-0.86;90.66;100253.69;4923235;29;20048;-78
2022/03/07 04:41:13;;;;;;;36.33;17.17;;;;;;;-1.11;91.15;100228.97;4923235;29;20048;-78
2022/03/07 04:43:59;;;;;;;40.38;18.58;;;;;;;-1.03;91.30;100234.34;4923053;29;20103;-78
2022/03/07 04:46:43;;;;;;;49.30;21.15;;;;;;;-1.22;91.94;100227.81;4923760;29;20040;-78
2022/03/07 04:49:28;;;;;;;46.85;20.92;;;;;;;-1.11;92.41;100216.13;4908805;29;20112;-78
2022/03/07 04:52:12;;;;;;;46.53;20.08;;;;;;;-1.00;92.22;100245.59;4924161;29;20047;-78
2022/03/07 04:54:56;;;;;;;40.92;20.02;;;;;;;-0.99;92.70;100246.47;4909663;29;20048;-78
2022/03/07 04:57:45;;;;;;;40.08;18.92;;;;;;;-1.01;92.36;100249.00;4924194;29;20359;-78
2022/03/07 05:00:31;;;;;;;37.17;18.08;;;;;;;-0.84;91.95;100248.59;4923817;29;20103;-78
2022/03/07 05:03:16;;;;;;;33.13;15.73;;;;;;;-1.01;93.20;100245.53;4923460;29;20384;-78
2022/03/07 05:06:01;;;;;;;34.53;17.20;;;;;;;-0.92;93.03;100268.94;4922864;29;20079;-77
2022/03/07 05:08:45;;;;;;;32.25;17.67;;;;;;;-1.09;93.81;100232.47;4923081;29;20088;-77
2022/03/07 05:11:30;;;;;;;33.78;17.73;;;;;;;-0.95;93.35;100245.72;4909149;29;20044;-78
2022/03/07 05:14:14;;;;;;;43.33;20.58;;;;;;;-1.02;93.48;100230.94;4922987;29;20063;-78
2022/03/07 05:16:59;;;;;;;40.08;19.25;;;;;;;-1.01;94.26;100248.09;4922874;29;20051;-78
2022/03/07 05:19:45;;;;;;;34.30;17.45;;;;;;;-1.04;95.07;100248.91;4909252;29;20067;-78
2022/03/07 05:22:30;;;;;;;32.55;16.02;;;;;;;-1.06;96.50;100254.84;4922989;29;20052;-78
2022/03/07 05:25:17;;;;;;;36.25;17.77;;;;;;;-1.16;98.29;100253.69;4923511;29;20067;-78
2022/03/07 05:28:01;;;;;;;29.10;15.63;;;;;;;-1.05;98.31;100248.84;4922819;29;20040;-78
2022/03/07 05:30:46;;;;;;;33.05;16.15;;;;;;;-1.09;98.57;100231.59;4910394;29;20044;-78
2022/03/07 05:33:34;;;;;;;32.88;16.73;;;;;;;-0.93;99.13;100276.63;4912578;29;20056;-78
2022/03/07 05:36:19;;;;;;;35.90;16.52;;;;;;;-1.00;99.40;100266.16;4924171;29;20068;-78
2022/03/07 05:39:05;;;;;;;32.78;16.20;;;;;;;-0.97;99.54;100250.81;4923058;29;20040;-78
2022/03/07 05:41:49;;;;;;;28.92;15.77;;;;;;;-1.18;100.00;100251.06;4922441;29;20050;-78
2022/03/07 05:44:34;;;;;;;28.15;14.65;;;;;;;-1.13;100.00;100258.06;4904885;29;20052;-78
2022/03/07 05:47:19;;;;;;;29.92;14.40;;;;;;;-0.98;100.00;100241.34;4922131;29;20097;-78
2022/03/07 05:50:04;;;;;;;27.92;14.63;;;;;;;-0.84;100.00;100254.63;4921471;29;20040;-78
2022/03/07 05:52:50;;;;;;;26.13;12.57;;;;;;;-0.69;100.00;100274.72;4922376;29;20048;-78
2022/03/07 05:55:35;;;;;;;24.52;12.73;;;;;;;-0.98;100.00;100240.47;4921673;29;20088;-78
2022/03/07 05:58:19;;;;;;;31.00;15.02;;;;;;;-0.88;100.00;100249.31;4922577;29;20084;-78
2022/03/07 06:01:04;;;;;;;26.50;15.00;;;;;;;-0.84;100.00;100246.03;4920337;29;20557;-78
2022/03/07 06:03:49;;;;;;;35.67;15.40;;;;;;;-0.79;100.00;100262.44;4906522;29;20055;-78
2022/03/07 06:06:35;;;;;;;26.38;12.75;;;;;;;-0.85;100.00;100259.69;4921003;29;20039;-78
2022/03/07 06:09:19;;;;;;;32.60;14.23;;;;;;;-0.76;100.00;100267.69;4921056;29;20076;-78
2022/03/07 06:12:05;;;;;;;26.30;13.82;;;;;;;-0.49;100.00;100286.47;4920749;29;20060;-78
2022/03/07 06:14:51;;;;;;;29.90;13.43;;;;;;;-0.80;100.00;100247.84;4921662;29;20445;-78
2022/03/07 06:17:36;;;;;;;25.25;14.65;;;;;;;-0.52;100.00;100288.06;4921873;29;20143;-80
2022/03/07 06:20:58;;;;;;;24.85;12.82;;;;;;;-0.61;100.00;100272.38;4982791;23;20052;-82
2022/03/07 06:23:43;;;;;;;24.50;12.75;;;;;;;-0.51;100.00;100266.66;4923050;29;20056;-81
2022/03/07 06:26:27;;;;;;;24.02;12.50;;;;;;;-0.37;100.00;100280.75;4910006;29;20044;-81
2022/03/07 06:29:12;;;;;;;26.30;12.77;;;;;;;-0.48;100.00;100253.88;4923509;29;20085;-81
2022/03/07 06:31:56;;;;;;;26.17;12.93;;;;;;;-0.38;100.00;100263.56;4923657;29;20054;-82
2022/03/07 06:34:41;;;;;;;27.40;13.13;;;;;;;-0.30;100.00;100249.19;4921937;29;20040;-82
2022/03/07 06:37:25;;;;;;;24.73;14.00;;;;;;;-0.30;100.00;100228.59;4921874;29;20072;-82
2022/03/07 06:40:10;;;;;;;27.65;13.07;;;;;;;-0.37;100.00;100252.44;4923237;29;20055;-82
2022/03/07 06:42:54;;;;;;;24.90;11.98;;;;;;;-0.39;100.00;100237.78;4922075;29;20044;-81
2022/03/07 06:45:39;;;;;;;24.55;13.23;;;;;;;-0.52;100.00;100239.16;4922531;29;20040;-81
2022/03/07 06:48:24;;;;;;;41.72;25.15;;;;;;;-0.36;100.00;100248.16;4923378;29;20040;-81
2022/03/07 06:51:09;;;;;;;107.88;58.35;;;;;;;-0.29;100.00;100255.22;4922614;29;20036;-81
2022/03/07 06:53:54;;;;;;;64.47;37.88;;;;;;;-0.07;100.00;100239.47;4921944;29;20139;-81
2022/03/07 06:56:38;;;;;;;92.70;46.50;;;;;;;0.43;100.00;100275.00;4919376;29;20407;-82
2022/03/07 06:59:22;;;;;;;49.67;24.27;;;;;;;0.76;100.00;100267.16;4919265;29;20051;-83
2022/03/07 07:02:07;;;;;;;47.08;19.83;;;;;;;1.23;98.32;100259.53;4918877;29;20053;-83
2022/03/07 07:04:51;;;;;;;31.85;14.30;;;;;;;1.77;94.22;100273.47;4903112;29;20071;-83
2022/03/07 07:07:36;;;;;;;35.80;15.70;;;;;;;2.46;93.93;100272.88;4919942;29;20040;-83
2022/03/07 07:10:21;;;;;;;19.60;9.60;;;;;;;2.52;88.32;100261.75;4905537;29;20052;-84
2022/03/07 07:13:05;;;;;;;26.70;12.18;;;;;;;2.86;87.72;100262.22;4908992;29;20048;-81
2022/03/07 07:15:55;;;;;;;34.08;15.70;;;;;;;3.34;85.90;100254.19;4896148;29;20075;-83
2022/03/07 07:18:40;;;;;;;39.33;17.98;;;;;;;3.62;84.16;100245.00;4923027;29;20111;-83
2022/03/07 07:21:24;;;;;;;15.00;8.10;;;;;;;3.08;83.88;100259.06;4923648;29;20123;-83
2022/03/07 07:24:09;;;;;;;18.00;8.93;;;;;;;3.42;81.51;100262.94;4909100;29;20104;-85
2022/03/07 07:26:54;;;;;;;32.03;14.73;;;;;;;3.56;80.59;100244.06;4923135;29;20055;-83
2022/03/07 07:29:39;;;;;;;12.13;6.72;;;;;;;3.78;76.86;100265.88;4909223;29;20044;-85
2022/03/07 07:32:24;;;;;;;10.13;5.97;;;;;;;4.21;74.98;100268.00;4923220;29;20044;-85
2022/03/07 07:35:09;;;;;;;13.38;7.45;;;;;;;4.17;74.96;100253.28;4922857;29;20104;-85
2022/03/07 07:37:54;;;;;;;14.68;6.38;;;;;;;4.22;74.97;100264.56;4922814;29;20044;-85
2022/03/07 07:40:39;;;;;;;28.90;12.82;;;;;;;4.20;74.59;100263.66;4923007;29;20044;-91
2022/03/07 07:43:23;;;;;;;48.13;23.15;;;;;;;4.41;74.59;100254.31;4923106;29;20040;-86
2022/03/07 07:46:08;;;;;;;44.83;21.25;;;;;;;4.90;73.09;100255.47;4908655;29;20396;-84
2022/03/07 07:48:52;;;;;;;24.35;10.80;;;;;;;4.72;73.18;100254.53;4923196;29;20048;-85
2022/03/07 07:51:36;;;;;;;26.75;11.38;;;;;;;4.59;72.97;100257.03;4922785;29;20044;-81
2022/03/07 07:54:21;;;;;;;42.60;19.60;;;;;;;4.90;71.99;100247.66;4908975;29;20045;-84
2022/03/07 07:57:07;;;;;;;64.05;30.83;;;;;;;4.99;71.89;100256.38;4922909;29;20059;-84
2022/03/07 07:59:51;;;;;;;34.78;16.13;;;;;;;4.94;72.57;100253.78;4922599;29;20036;-82
2022/03/07 08:02:36;;;;;;;24.38;11.30;;;;;;;5.27;70.53;100262.56;4908969;29;20044;-82
2022/03/07 08:05:20;;;;;;;18.05;9.45;;;;;;;5.63;71.37;100252.28;4922803;29;20078;-83
2022/03/07 08:08:05;;;;;;;114.80;46.70;;;;;;;5.56;70.03;100253.13;4908755;29;20059;-84
2022/03/07 08:10:49;;;;;;;40.80;21.23;;;;;;;5.62;71.34;100262.66;4908296;29;20048;-83
2022/03/07 08:13:34;;;;;;;18.05;9.38;;;;;;;5.47;72.58;100252.25;4908421;29;20103;-83
2022/03/07 08:16:20;;;;;;;21.85;11.20;;;;;;;5.27;71.78;100260.84;4908370;29;20059;-83
2022/03/07 08:19:04;;;;;;;13.95;7.28;;;;;;;6.00;70.25;100251.47;4908477;29;20063;-82
2022/03/07 08:21:49;;;;;;;29.42;15.48;;;;;;;6.06;68.73;100254.94;4908004;29;20044;-83
2022/03/07 08:24:34;;;;;;;17.42;7.65;;;;;;;5.93;69.39;100248.00;4893799;29;20048;-83
2022/03/07 08:27:18;;;;;;;27.02;14.02;;;;;;;5.93;70.10;100240.22;4922002;29;20096;-82
2022/03/07 08:30:09;;;;;;;20.40;11.27;;;;;;;5.91;68.98;100247.09;4907720;29;20063;-82
2022/03/07 08:32:54;;;;;;;38.03;21.67;;;;;;;5.88;69.18;100254.91;4921736;29;20408;-82
2022/03/07 08:35:38;;;;;;;20.45;12.63;;;;;;;5.67;69.51;100257.47;4907739;29;20467;-83
2022/03/07 08:38:22;;;;;;;37.70;14.38;;;;;;;5.78;70.79;100247.97;4921586;29;20462;-83
2022/03/07 08:41:07;;;;;;;24.92;12.25;;;;;;;6.06;68.53;100238.47;4908252;29;20336;-84
2022/03/07 08:43:52;;;;;;;20.70;12.80;;;;;;;5.98;68.92;100243.69;4922250;29;20081;-83
2022/03/07 08:46:39;;;;;;;61.63;31.83;;;;;;;6.36;67.58;100236.72;4907639;29;20040;-83
2022/03/07 08:49:23;;;;;;;38.05;21.58;;;;;;;6.59;67.02;100232.34;4921861;29;20048;-81
2022/03/07 08:52:08;;;;;;;24.52;14.15;;;;;;;6.28;68.53;100229.81;4908015;29;20044;-83
2022/03/07 08:54:52;;;;;;;14.05;8.70;;;;;;;5.71;68.71;100228.88;4907496;29;20052;-84
2022/03/07 08:57:38;;;;;;;11.20;6.82;;;;;;;5.89;69.25;100238.44;4907881;29;20044;-83
2022/03/07 09:00:22;;;;;;;22.00;13.88;;;;;;;5.86;70.30;100226.31;4907281;29;20048;-83
2022/03/07 09:03:07;;;;;;;9.82;5.97;;;;;;;6.74;68.06;100228.84;4894666;29;20455;-83
2022/03/07 09:05:51;;;;;;;10.43;6.65;;;;;;;6.26;68.32;100234.13;4907375;29;20103;-83
2022/03/07 09:08:35;;;;;;;10.55;5.20;;;;;;;6.66;67.86;100230.59;4921516;29;20100;-84
2022/03/07 09:11:20;;;;;;;15.00;7.25;;;;;;;6.43;67.57;100230.66;4907432;29;20044;-83
2022/03/07 09:14:05;;;;;;;11.93;7.70;;;;;;;6.43;67.57;100228.91;4921089;29;20103;-84
2022/03/07 09:16:49;;;;;;;10.45;5.72;;;;;;;6.61;66.26;100227.16;4921804;29;20044;-88
2022/03/07 09:19:34;;;;;;;10.60;5.47;;;;;;;6.71;66.60;100218.44;4921751;29;20470;-83
2022/03/07 09:22:19;;;;;;;9.13;5.68;;;;;;;6.84;66.67;100229.69;4877559;29;20045;-83
2022/03/07 09:25:05;;;;;;;12.10;6.50;;;;;;;6.86;66.56;100228.84;4886982;29;20060;-83
2022/03/07 09:27:50;;;;;;;11.73;5.85;;;;;;;6.92;66.43;100231.41;4873649;29;20048;-84
2022/03/07 09:30:34;;;;;;;11.45;7.47;;;;;;;7.15;65.59;100214.81;4900911;29;20048;-83
2022/03/07 09:33:19;;;;;;;9.48;5.03;;;;;;;6.82;65.43;100221.88;4887883;29;20048;-84
2022/03/07 09:36:04;;;;;;;6.40;3.80;;;;;;;7.07;65.99;100216.59;4875063;29;20048;-84
2022/03/07 09:38:50;;;;;;;15.75;10.40;;;;;;;7.23;66.61;100216.50;4901802;29;20051;-84
2022/03/07 09:41:35;;;;;;;7.70;5.32;;;;;;;7.17;64.15;100213.94;4887858;29;20051;-84
2022/03/07 09:44:19;;;;;;;8.93;5.00;;;;;;;7.36;63.38;100219.06;4888360;29;20455;-84
2022/03/07 09:47:04;;;;;;;11.88;5.65;;;;;;;6.79;67.00;100217.56;4874785;29;20052;-84
2022/03/07 09:49:52;;;;;;;10.77;6.45;;;;;;;7.03;67.54;100203.56;4887738;29;20104;-84
2022/03/07 09:52:36;;;;;;;8.45;5.25;;;;;;;6.56;67.36;100203.72;4901575;29;20325;-84
2022/03/07 09:55:21;;;;;;;9.25;4.10;;;;;;;6.60;66.64;100215.00;4888157;29;20119;-83
2022/03/07 09:58:07;;;;;;;8.77;4.60;;;;;;;7.19;64.54;100211.34;4901941;29;20041;-83
2022/03/07 10:00:52;;;;;;;8.82;5.70;;;;;;;7.34;66.07;100192.13;4887475;29;20406;-84
2022/03/07 10:03:36;;;;;;;19.13;7.75;;;;;;;7.27;65.49;100204.31;4874314;29;20356;-84
2022/03/07 10:06:21;;;;;;;8.40;4.95;;;;;;;7.49;64.79;100186.81;4887437;29;20104;-83
2022/03/07 10:09:06;;;;;;;11.68;6.75;;;;;;;7.39;65.73;100204.25;4887424;29;20459;-84
2022/03/07 10:11:53;;;;;;;8.73;5.57;;;;;;;7.34;65.41;100207.75;4901167;29;20076;-83
2022/03/07 10:14:46;;;;;;;10.27;5.97;;;;;;;7.19;65.77;100206.97;4887812;29;20045;-85
2022/03/07 10:17:31;;;;;;;11.48;6.03;;;;;;;7.73;64.88;100201.44;4887515;29;20049;-84
2022/03/07 10:20:19;;;;;;;8.35;5.78;;;;;;;7.98;62.54;100202.13;4873977;29;20063;-84
2022/03/07 10:23:08;;;;;;;12.02;5.25;;;;;;;8.49;60.14;100212.13;4901631;29;20096;-82
2022/03/07 10:26:07;;;;;;;9.05;3.97;;;;;;;8.39;58.35;100208.75;4901016;29;20499;-80
2022/03/07 10:28:54;;;;;;;8.38;4.25;;;;;;;8.29;57.84;100213.16;4886897;29;20052;-82
2022/03/07 10:31:44;;;;;;;5.45;3.53;;;;;;;8.07;57.66;100214.22;4887030;29;20336;-82
2022/03/07 10:34:35;;;;;;;6.57;3.45;;;;;;;7.67;58.45;100211.91;4873927;29;20041;-82
2022/03/07 10:37:31;;;;;;;12.85;5.93;;;;;;;7.29;58.69;100219.97;4900735;29;20048;-83
2022/03/07 10:40:21;;;;;;;5.47;3.47;;;;;;;6.66;59.93;100214.97;4900667;29;20045;-81
2022/03/07 10:43:07;;;;;;;12.05;6.40;;;;;;;6.32;61.25;100209.84;4887498;29;20041;-82
2022/03/07 10:45:55;;;;;;;10.50;4.75;;;;;;;5.97;64.18;100215.94;4886618;29;20432;-83
2022/03/07 10:48:42;;;;;;;12.57;6.53;;;;;;;6.22;63.36;100209.00;4901347;29;20069;-83
2022/03/07 10:51:27;;;;;;;9.45;4.65;;;;;;;6.69;64.02;100207.16;4886974;29;20044;-82
2022/03/07 10:54:12;;;;;;;7.25;4.80;;;;;;;6.97;65.44;100176.69;4874191;29;20059;-82
2022/03/07 10:56:56;;;;;;;8.07;4.68;;;;;;;7.52;63.92;100194.63;4886557;29;20048;-81
2022/03/07 10:59:41;;;;;;;6.60;4.20;;;;;;;7.78;62.62;100186.63;4900927;29;20048;-81
2022/03/07 11:02:25;;;;;;;5.35;3.28;;;;;;;7.47;60.61;100184.25;4905505;29;20052;-82
2022/03/07 11:05:11;;;;;;;13.73;5.65;;;;;;;7.61;57.56;100183.28;4919570;29;20063;-81
2022/03/07 11:07:55;;;;;;;8.77;3.97;;;;;;;7.73;58.48;100173.63;4892901;29;20044;-82
2022/03/07 11:10:45;;;;;;;5.85;3.72;;;;;;;7.60;57.77;100174.56;4892940;29;20036;-81
2022/03/07 11:13:30;;;;;;;12.88;6.15;;;;;;;7.97;59.32;100175.16;4919486;29;20044;-79
2022/03/07 11:16:16;;;;;;;7.90;3.65;;;;;;;8.02;55.89;100163.81;4919998;29;20063;-82
2022/03/07 11:19:01;;;;;;;9.88;4.82;;;;;;;7.63;60.14;100168.47;4919556;29;20074;-82
2022/03/07 11:21:52;;;;;;;30.55;14.35;;;;;;;7.79;58.49;100183.13;4904092;29;20358;-81
2022/03/07 11:24:38;;;;;;;10.85;6.28;;;;;;;7.55;58.62;100175.50;4900244;29;20064;-79
2022/03/07 11:27:23;;;;;;;9.68;5.82;;;;;;;7.31;59.70;100153.91;4899351;29;20052;-81
2022/03/07 11:30:34;;;;;;;25.25;11.50;;;;;;;7.94;59.70;100164.75;4900394;29;20044;-81
2022/03/07 11:33:33;;;;;;;18.13;10.75;;;;;;;8.45;59.21;100163.41;4885849;29;20349;-78
2022/03/07 11:36:20;;;;;;;12.45;7.57;;;;;;;8.33;59.27;100156.56;4885850;29;20100;-78
2022/03/07 11:39:06;;;;;;;12.23;6.65;;;;;;;7.74;60.28;100164.06;4899628;29;20356;-78
2022/03/07 11:41:51;;;;;;;12.32;6.75;;;;;;;7.56;59.39;100156.38;4899695;29;20044;-77
2022/03/07 11:44:36;;;;;;;15.38;8.13;;;;;;;7.48;58.71;100149.47;4899609;29;20056;-77
2022/03/07 11:47:22;;;;;;;9.45;4.95;;;;;;;7.72;59.44;100148.41;4899834;29;20079;-78
2022/03/07 11:50:07;;;;;;;14.05;9.45;;;;;;;7.86;59.99;100145.69;4900491;29;20052;-78
2022/03/07 11:53:02;;;;;;;15.23;10.88;;;;;;;8.16;59.73;100141.09;4886700;29;20045;-78
2022/03/07 11:55:50;;;;;;;30.33;20.90;;;;;;;7.64;60.57;100115.47;4873283;29;20384;-78
2022/03/07 11:58:35;;;;;;;18.90;9.45;;;;;;;7.32;62.97;100149.59;4901180;29;20045;-77
2022/03/07 12:01:21;;;;;;;17.50;10.68;;;;;;;6.69;65.97;100137.75;4890019;29;20040;-77
2022/03/07 12:04:15;;;;;;;19.85;12.85;;;;;;;6.53;68.61;100125.66;4903707;29;20048;-77
2022/03/07 12:07:00;;;;;;;31.60;16.38;;;;;;;6.60;69.80;100136.91;4876998;29;20051;-78
2022/03/07 12:09:44;;;;;;;16.45;10.18;;;;;;;6.77;67.91;100130.78;4903661;29;20044;-85
2022/03/07 12:12:28;;;;;;;13.93;9.68;;;;;;;6.65;68.82;100143.84;4903180;29;20041;-78
2022/03/07 12:15:14;;;;;;;18.98;12.00;;;;;;;6.69;69.80;100145.56;4889558;29;20060;-78
2022/03/07 12:18:00;;;;;;;20.38;13.15;;;;;;;6.92;70.27;100127.25;4889347;29;20047;-78
2022/03/07 12:20:54;;;;;;;30.75;17.88;;;;;;;7.32;69.45;100140.03;4889198;29;20056;-79
2022/03/07 12:23:39;;;;;;;;;;;;;;;6.98;68.84;100136.75;4889513;29;20048;-77
2022/03/07 12:26:23;;;;;;;28.42;15.93;;;;;;;6.89;68.88;100142.88;4876428;29;19951;-78
2022/03/07 12:29:08;;;;;;;23.95;15.45;;;;;;;6.98;69.31;100137.59;4889256;29;20053;-78
2022/03/07 12:31:54;;;;;;;24.95;14.82;;;;;;;7.02;69.61;100134.13;4903307;29;20048;-80
2022/03/07 12:34:40;;;;;;;34.75;22.13;;;;;;;6.93;69.03;100131.56;4903367;29;20055;-78
2022/03/07 12:37:28;;;;;;;24.08;13.80;;;;;;;6.98;67.51;100131.53;4889351;29;20067;-78